createdAt,value
2023-03-08T00:01:52.531Z,26.23
2023-03-08T00:04:20.764Z,23.95
2023-03-08T00:06:49.961Z,24.77
2023-03-08T00:09:18.393Z,26.98
2023-03-08T00:11:46.942Z,25.73
2023-03-08T00:14:15.840Z,28.38
2023-03-08T00:16:44.284Z,25.75
2023-03-08T00:19:12.474Z,27.98
2023-03-08T00:21:41.481Z,27.13
2023-03-08T00:24:09.606Z,22.27
2023-03-08T00:26:38.066Z,21.92
2023-03-08T00:29:06.884Z,25.83
2023-03-08T00:31:35.298Z,30.25
2023-03-08T00:34:03.390Z,23.40
2023-03-08T00:36:31.649Z,23.92
2023-03-08T00:39:00.013Z,30.40
2023-03-08T00:41:28.561Z,24.13
2023-03-08T00:43:57.018Z,25.45
2023-03-08T00:46:26.524Z,24.60
2023-03-08T00:48:54.644Z,27.05
2023-03-08T00:51:23.065Z,28.83
2023-03-08T00:53:50.961Z,24.25
2023-03-08T00:56:19.208Z,28.20
2023-03-08T00:58:47.438Z,28.98
2023-03-08T01:01:19.046Z,28.00
2023-03-08T01:03:50.172Z,22.73
2023-03-08T01:06:19.278Z,31.95
2023-03-08T01:08:47.366Z,35.72
2023-03-08T01:11:20.409Z,32.25
2023-03-08T01:13:49.717Z,32.67
2023-03-08T01:16:30.961Z,32.40
2023-03-08T01:19:02.099Z,31.10
2023-03-08T01:21:32.225Z,33.00
2023-03-08T01:24:00.582Z,27.00
2023-03-08T01:26:31.350Z,30.80
2023-03-08T01:28:59.766Z,30.38
2023-03-08T01:31:30.767Z,33.05
2023-03-08T01:34:01.402Z,31.75
2023-03-08T01:36:30.062Z,28.55
2023-03-08T01:39:01.667Z,29.05
2023-03-08T01:43:59.431Z,32.08
2023-03-08T01:46:28.722Z,32.50
2023-03-08T01:49:34.379Z,28.52
2023-03-08T01:52:14.561Z,28.45
2023-03-08T01:54:53.198Z,25.10
2023-03-08T01:57:31.814Z,29.48
2023-03-08T02:00:10.786Z,25.45
2023-03-08T02:03:08.901Z,30.88
2023-03-08T02:05:42.177Z,30.98
2023-03-08T02:08:16.830Z,32.13
2023-03-08T02:10:46.670Z,28.90
2023-03-08T02:13:16.738Z,34.28
2023-03-08T02:15:46.089Z,30.13
2023-03-08T02:18:14.590Z,34.53
2023-03-08T02:20:42.948Z,35.25
2023-03-08T02:23:24.068Z,32.08
2023-03-08T02:26:05.152Z,29.48
2023-03-08T02:28:34.554Z,33.67
2023-03-08T02:31:02.667Z,33.47
2023-03-08T02:33:32.464Z,33.03
2023-03-08T02:36:04.871Z,34.95
2023-03-08T02:38:32.848Z,31.98
2023-03-08T02:41:01.270Z,36.63
2023-03-08T02:43:29.350Z,37.55
2023-03-08T02:45:57.380Z,35.30
2023-03-08T02:48:25.421Z,35.40
2023-03-08T02:50:53.623Z,35.95
2023-03-08T02:53:21.602Z,42.33
2023-03-08T02:55:49.802Z,36.50
2023-03-08T02:58:18.844Z,34.20
2023-03-08T03:00:47.275Z,38.03
2023-03-08T03:03:17.725Z,39.00
2023-03-08T03:05:46.068Z,39.28
2023-03-08T03:08:19.921Z,39.72
2023-03-08T03:10:47.948Z,36.35
2023-03-08T03:13:15.890Z,39.83
2023-03-08T03:15:44.805Z,36.33
2023-03-08T03:18:13.195Z,34.95
2023-03-08T03:20:41.197Z,30.08
2023-03-08T03:23:10.481Z,39.70
2023-03-08T03:25:45.396Z,35.55
2023-03-08T03:30:46.167Z,35.47
2023-03-08T03:33:15.541Z,36.83
2023-03-08T03:35:43.833Z,36.05
2023-03-08T03:38:12.010Z,35.20
2023-03-08T03:40:41.617Z,29.48
2023-03-08T03:43:11.257Z,34.08
2023-03-08T03:45:39.846Z,35.33
2023-03-08T03:48:10.592Z,34.22
2023-03-08T03:50:39.568Z,37.95
2023-03-08T03:53:12.946Z,33.65
2023-03-08T03:55:41.269Z,32.33
2023-03-08T03:58:09.200Z,36.70
2023-03-08T04:00:37.712Z,41.63
2023-03-08T04:03:16.218Z,34.78
2023-03-08T04:05:44.496Z,31.30
2023-03-08T04:08:12.441Z,35.33
2023-03-08T04:10:43.423Z,39.97
2023-03-08T04:13:12.695Z,36.90
2023-03-08T04:15:41.907Z,36.92
2023-03-08T04:18:13.161Z,37.72
2023-03-08T04:23:15.002Z,34.60
2023-03-08T04:25:48.099Z,41.00
2023-03-08T04:28:18.136Z,33.95
2023-03-08T04:30:46.793Z,36.60
2023-03-08T04:33:17.421Z,41.83
2023-03-08T04:35:49.890Z,36.50
2023-03-08T04:38:21.647Z,41.70
2023-03-08T04:41:02.626Z,34.92
2023-03-08T04:43:44.466Z,44.22
2023-03-08T04:46:14.023Z,43.88
2023-03-08T04:48:42.107Z,41.92
2023-03-08T04:51:13.631Z,36.63
2023-03-08T04:53:44.686Z,39.42
2023-03-08T04:56:15.404Z,44.72
2023-03-08T05:01:23.507Z,41.85
2023-03-08T05:03:54.574Z,37.72
2023-03-08T05:06:28.803Z,43.65
2023-03-08T05:08:58.589Z,41.50
2023-03-08T05:11:29.901Z,44.13
2023-03-08T05:14:01.155Z,42.35
2023-03-08T05:16:30.459Z,37.83
2023-03-08T05:18:58.706Z,34.85
2023-03-08T05:21:32.445Z,41.92
2023-03-08T05:24:02.855Z,38.13
2023-03-08T05:26:35.452Z,39.33
2023-03-08T05:29:06.892Z,58.00
2023-03-08T05:31:38.111Z,32.90
2023-03-08T05:34:11.396Z,42.97
2023-03-08T05:36:43.026Z,40.47
2023-03-08T05:39:11.925Z,34.55
2023-03-08T05:41:51.528Z,36.33
2023-03-08T05:44:27.132Z,54.97
2023-03-08T05:46:56.778Z,36.10
2023-03-08T05:49:25.417Z,43.33
2023-03-08T05:51:55.053Z,41.65
2023-03-08T05:54:25.440Z,37.65
2023-03-08T05:56:59.450Z,32.33
2023-03-08T05:59:28.445Z,26.60
2023-03-08T06:02:01.681Z,27.52
2023-03-08T06:04:41.347Z,25.65
2023-03-08T06:07:11.077Z,23.95
2023-03-08T06:09:44.648Z,22.05
2023-03-08T06:12:16.224Z,22.00
2023-03-08T06:14:47.112Z,23.15
2023-03-08T06:17:17.316Z,26.63
2023-03-08T06:19:51.728Z,27.85
2023-03-08T06:22:20.502Z,33.58
2023-03-08T06:24:50.114Z,22.95
2023-03-08T06:27:29.232Z,36.92
2023-03-08T06:30:00.707Z,28.92
2023-03-08T06:32:32.126Z,23.55
2023-03-08T06:35:01.708Z,32.70
2023-03-08T06:37:35.888Z,19.70
2023-03-08T06:40:09.345Z,30.80
2023-03-08T06:42:41.428Z,28.48
2023-03-08T06:45:14.801Z,28.65
2023-03-08T06:47:43.157Z,22.15
2023-03-08T06:50:12.892Z,32.25
2023-03-08T06:52:44.326Z,38.92
2023-03-08T06:55:13.045Z,35.15
2023-03-08T06:57:41.972Z,23.05
2023-03-08T07:00:12.491Z,23.58
2023-03-08T07:02:40.750Z,17.48
2023-03-08T07:05:10.495Z,31.25
2023-03-08T07:07:39.938Z,14.18
2023-03-08T07:10:11.146Z,21.15
2023-03-08T07:12:40.467Z,12.52
2023-03-08T07:15:11.262Z,15.25
2023-03-08T07:17:40.977Z,13.87
2023-03-08T07:20:11.158Z,12.18
2023-03-08T07:22:42.273Z,14.85
2023-03-08T07:25:13.332Z,13.02
2023-03-08T07:27:41.649Z,14.73
2023-03-08T07:30:13.314Z,12.75
2023-03-08T07:35:16.260Z,12.93
2023-03-08T07:37:48.219Z,12.40
2023-03-08T07:40:17.965Z,12.32
2023-03-08T07:42:46.607Z,11.88
2023-03-08T07:45:31.118Z,12.82
2023-03-08T07:47:59.348Z,12.45
2023-03-08T07:50:27.448Z,14.40
2023-03-08T07:52:55.586Z,10.43
2023-03-08T07:55:26.087Z,11.43
2023-03-08T07:57:54.479Z,13.73
2023-03-08T08:00:23.005Z,14.82
2023-03-08T08:02:54.119Z,12.95
2023-03-08T08:05:23.072Z,12.10
2023-03-08T08:07:51.803Z,11.95
2023-03-08T08:10:20.727Z,12.20
2023-03-08T08:12:49.062Z,12.13
2023-03-08T08:15:18.038Z,17.40
2023-03-08T08:17:46.343Z,10.88
2023-03-08T08:20:14.997Z,11.00
2023-03-08T08:22:43.467Z,10.93
2023-03-08T08:25:11.696Z,11.00
2023-03-08T08:27:41.405Z,14.15
2023-03-08T08:30:13.247Z,12.15
2023-03-08T08:32:41.925Z,9.63
2023-03-08T08:35:10.462Z,12.20
2023-03-08T08:37:38.679Z,14.82
2023-03-08T08:40:10.875Z,14.05
2023-03-08T08:42:39.385Z,14.55
2023-03-08T08:45:08.841Z,17.23
2023-03-08T08:47:37.220Z,13.35
2023-03-08T08:50:08.384Z,14.63
2023-03-08T08:52:36.731Z,11.05
2023-03-08T08:55:05.571Z,13.63
2023-03-08T08:57:35.329Z,10.68
2023-03-08T09:00:08.348Z,11.10
2023-03-08T09:02:37.119Z,10.82
2023-03-08T09:05:05.922Z,11.55
2023-03-08T09:07:39.283Z,11.65
2023-03-08T09:10:09.673Z,10.82
2023-03-08T09:12:38.261Z,11.05
2023-03-08T09:15:07.718Z,10.05
2023-03-08T09:17:36.276Z,10.38
2023-03-08T09:20:06.899Z,11.20
2023-03-08T09:22:35.999Z,12.60
2023-03-08T09:25:06.881Z,12.07
2023-03-08T09:27:38.356Z,9.40
2023-03-08T09:30:10.510Z,9.73
2023-03-08T09:32:39.152Z,8.32
2023-03-08T09:35:09.289Z,9.30
2023-03-08T09:37:39.318Z,11.63
2023-03-08T09:40:17.756Z,10.13
2023-03-08T09:42:46.474Z,8.20
2023-03-08T09:45:26.789Z,10.55
2023-03-08T09:48:07.266Z,8.55
2023-03-08T09:50:47.559Z,13.05
2023-03-08T09:53:39.281Z,9.75
2023-03-08T09:56:29.610Z,8.40
2023-03-08T09:59:08.570Z,8.77
2023-03-08T10:02:13.426Z,15.38
2023-03-08T10:05:12.431Z,17.60
2023-03-08T10:07:59.641Z,14.60
2023-03-08T10:10:53.496Z,16.05
2023-03-08T10:13:35.293Z,13.38
2023-03-08T10:19:02.205Z,13.25
2023-03-08T10:21:34.089Z,15.27
2023-03-08T10:24:14.821Z,16.33
2023-03-08T10:26:44.967Z,14.10
2023-03-08T10:29:14.795Z,13.75
2023-03-08T10:31:47.468Z,15.48
2023-03-08T10:34:22.867Z,15.80
2023-03-08T10:37:08.094Z,10.65
2023-03-08T10:39:38.652Z,9.13
2023-03-08T10:42:17.881Z,10.95
2023-03-08T10:45:13.225Z,9.07
2023-03-08T10:47:41.779Z,10.70
2023-03-08T10:50:27.535Z,15.55
2023-03-08T10:52:56.765Z,11.38
2023-03-08T10:55:30.049Z,16.30
2023-03-08T10:58:01.384Z,12.80
2023-03-08T11:00:44.794Z,14.48
2023-03-08T11:03:22.168Z,15.77
2023-03-08T11:06:07.712Z,18.13
2023-03-08T11:08:51.988Z,13.73
2023-03-08T11:11:20.329Z,20.77
2023-03-08T11:13:51.993Z,15.23
2023-03-08T11:19:29.720Z,12.52
2023-03-08T11:22:14.035Z,11.57
2023-03-08T11:25:11.302Z,14.52
2023-03-08T11:27:57.842Z,12.60
2023-03-08T11:31:02.286Z,15.63
2023-03-08T11:33:56.581Z,16.13
2023-03-08T11:37:05.896Z,10.18
2023-03-08T11:39:46.957Z,13.20
2023-03-08T11:42:48.860Z,14.43
2023-03-08T11:45:34.233Z,12.43
2023-03-08T11:48:43.659Z,13.75
2023-03-08T11:51:33.061Z,12.63
2023-03-08T11:54:39.421Z,10.70
2023-03-08T11:57:13.774Z,10.82
2023-03-08T12:00:05.639Z,18.05
2023-03-08T12:02:48.358Z,9.95
2023-03-08T12:05:40.498Z,15.52
2023-03-08T12:08:27.686Z,19.23
2023-03-08T12:11:16.456Z,18.08
2023-03-08T12:13:58.194Z,19.30
2023-03-08T12:16:48.783Z,27.73
2023-03-08T12:19:44.298Z,31.05
2023-03-08T12:22:44.654Z,24.85
2023-03-08T12:25:19.002Z,27.27
2023-03-08T12:28:00.059Z,20.33
2023-03-08T12:31:02.009Z,20.05
2023-03-08T12:33:32.555Z,25.02
2023-03-08T12:36:05.423Z,22.58
2023-03-08T12:38:46.025Z,24.40
2023-03-08T12:41:27.730Z,29.00
2023-03-08T12:44:05.223Z,26.52
2023-03-08T12:47:02.248Z,31.42
2023-03-08T12:49:39.883Z,27.70
2023-03-08T12:52:20.273Z,31.38
2023-03-08T12:55:06.963Z,24.70
2023-03-08T12:57:47.311Z,25.23
2023-03-08T13:00:25.556Z,31.40
2023-03-08T13:03:44.281Z,24.67
2023-03-08T13:06:25.966Z,29.00
2023-03-08T13:09:08.176Z,28.88
2023-03-08T13:11:46.333Z,24.92
2023-03-08T13:14:59.500Z,31.80
2023-03-08T13:17:58.272Z,27.67
2023-03-08T13:20:52.979Z,28.88
2023-03-08T13:23:54.350Z,26.65
2023-03-08T13:27:10.930Z,29.90
2023-03-08T13:29:42.151Z,19.67
2023-03-08T13:32:21.764Z,26.80
2023-03-08T13:35:05.157Z,21.92
2023-03-08T13:37:33.978Z,26.48
2023-03-08T13:40:05.367Z,23.92
2023-03-08T13:42:33.804Z,33.60
2023-03-08T13:45:17.543Z,28.90
2023-03-08T13:47:47.471Z,34.40
2023-03-08T13:50:45.371Z,35.35
2023-03-08T13:53:36.950Z,32.17
2023-03-08T13:56:07.417Z,24.33
2023-03-08T13:58:50.767Z,27.58
2023-03-08T14:01:23.602Z,30.35
2023-03-08T14:03:55.279Z,33.45
2023-03-08T14:09:04.058Z,26.25
2023-03-08T14:11:38.323Z,29.33
2023-03-08T14:14:19.422Z,32.33
2023-03-08T14:16:51.904Z,29.30
2023-03-08T14:19:34.090Z,34.45
2023-03-08T14:22:37.797Z,31.90
2023-03-08T14:25:22.744Z,31.40
2023-03-08T14:27:51.480Z,30.10
2023-03-08T14:30:29.387Z,40.58
2023-03-08T14:33:26.416Z,34.17
2023-03-08T14:36:01.737Z,35.95
2023-03-08T14:38:34.497Z,33.30
2023-03-08T14:41:10.399Z,33.10
2023-03-08T14:43:39.846Z,34.72
2023-03-08T14:46:09.708Z,29.15
2023-03-08T14:48:38.904Z,28.05
2023-03-08T14:51:36.630Z,32.22
2023-03-08T14:54:20.028Z,31.83
2023-03-08T14:56:50.173Z,38.22
2023-03-08T14:59:27.414Z,36.22
2023-03-08T15:01:56.647Z,22.40
2023-03-08T15:04:25.971Z,41.78
2023-03-08T15:06:55.768Z,30.23
2023-03-08T15:09:26.418Z,46.45
2023-03-08T15:12:00.009Z,41.42
2023-03-08T15:14:30.744Z,36.10
2023-03-08T15:16:59.188Z,36.27
2023-03-08T15:19:27.669Z,42.85
2023-03-08T15:21:56.000Z,29.55
2023-03-08T15:24:24.381Z,37.35
2023-03-08T15:26:52.975Z,33.33
2023-03-08T15:29:28.294Z,44.78
2023-03-08T15:31:58.134Z,31.20
2023-03-08T15:34:28.405Z,44.65
2023-03-08T15:36:57.982Z,43.70
2023-03-08T15:39:26.217Z,48.67
2023-03-08T15:41:54.840Z,50.30
2023-03-08T15:44:23.190Z,44.95
2023-03-08T15:46:52.874Z,35.85
2023-03-08T15:49:21.215Z,53.65
2023-03-08T15:51:50.188Z,47.47
2023-03-08T15:54:18.541Z,51.53
2023-03-08T15:56:47.435Z,41.35
2023-03-08T15:59:15.752Z,45.60
2023-03-08T16:01:44.475Z,30.85
2023-03-08T16:04:12.902Z,42.20
2023-03-08T16:06:43.996Z,35.65
2023-03-08T16:09:12.369Z,46.70
2023-03-08T16:11:41.158Z,50.25
2023-03-08T16:14:09.891Z,43.10
2023-03-08T16:16:45.343Z,47.03
2023-03-08T16:19:14.441Z,48.30
2023-03-08T16:21:42.793Z,42.70
2023-03-08T16:24:12.128Z,45.25
2023-03-08T16:26:40.723Z,45.22
2023-03-08T16:29:09.697Z,45.30
2023-03-08T16:31:38.654Z,54.08
2023-03-08T16:34:08.610Z,56.42
2023-03-08T16:36:38.008Z,103.40
2023-03-08T16:39:17.745Z,74.80
2023-03-08T16:41:46.832Z,61.13
2023-03-08T16:44:31.050Z,55.03
2023-03-08T16:46:59.839Z,55.30
2023-03-08T16:49:28.788Z,55.72
2023-03-08T16:51:58.159Z,56.67
2023-03-08T16:54:27.312Z,57.17
2023-03-08T16:56:56.446Z,65.10
2023-03-08T16:59:25.444Z,55.85
2023-03-08T17:01:54.848Z,48.88
2023-03-08T17:04:23.594Z,50.38
2023-03-08T17:06:52.141Z,48.78
2023-03-08T17:09:22.520Z,56.60
2023-03-08T17:11:51.758Z,44.20
2023-03-08T17:14:20.571Z,56.85
2023-03-08T17:16:49.305Z,54.05
2023-03-08T17:19:18.854Z,60.92
2023-03-08T17:21:50.760Z,52.03
2023-03-08T17:24:19.978Z,51.75
2023-03-08T17:26:53.496Z,51.38
2023-03-08T17:29:22.854Z,60.25
2023-03-08T17:31:52.280Z,93.68
2023-03-08T17:34:24.017Z,98.72
2023-03-08T17:36:53.823Z,65.78
2023-03-08T17:39:22.638Z,71.50
2023-03-08T17:41:51.023Z,72.22
2023-03-08T17:44:19.261Z,75.35
2023-03-08T17:46:47.670Z,63.67
2023-03-08T17:49:23.770Z,76.28
2023-03-08T17:51:52.934Z,63.88
2023-03-08T17:54:21.647Z,63.03
2023-03-08T17:56:50.308Z,60.22
2023-03-08T17:59:19.007Z,59.33
2023-03-08T18:01:47.135Z,53.92
2023-03-08T18:04:15.682Z,55.78
2023-03-08T18:06:44.592Z,56.38
2023-03-08T18:09:17.119Z,51.67
2023-03-08T18:11:46.016Z,50.42
2023-03-08T18:14:15.642Z,47.85
2023-03-08T18:16:45.334Z,45.58
2023-03-08T18:19:14.184Z,50.83
2023-03-08T18:21:42.951Z,44.17
2023-03-08T18:24:12.943Z,46.78
2023-03-08T18:26:41.345Z,44.03
2023-03-08T18:29:10.002Z,44.28
2023-03-08T18:31:39.375Z,44.90
2023-03-08T18:34:11.717Z,42.58
2023-03-08T18:36:41.296Z,46.63
2023-03-08T18:39:13.772Z,48.60
2023-03-08T18:41:44.007Z,44.90
2023-03-08T18:44:13.684Z,38.63
2023-03-08T18:46:42.615Z,44.80
2023-03-08T18:49:14.992Z,47.80
2023-03-08T18:51:44.559Z,43.38
2023-03-08T18:54:17.808Z,45.75
2023-03-08T18:56:49.986Z,33.20
2023-03-08T18:59:21.829Z,61.20
2023-03-08T19:01:50.625Z,56.13
2023-03-08T19:04:19.382Z,55.85
2023-03-08T19:06:47.959Z,57.10
2023-03-08T19:09:18.456Z,58.75
2023-03-08T19:11:48.340Z,55.00
2023-03-08T19:14:17.423Z,55.90
2023-03-08T19:16:46.079Z,49.65
2023-03-08T19:19:16.738Z,53.85
2023-03-08T19:21:48.983Z,40.80
2023-03-08T19:24:20.846Z,47.58
2023-03-08T19:26:53.039Z,36.97
2023-03-08T19:29:30.673Z,67.78
2023-03-08T19:32:09.168Z,56.35
2023-03-08T19:34:45.218Z,77.70
2023-03-08T19:37:15.527Z,77.40
2023-03-08T19:39:44.389Z,70.85
2023-03-08T19:42:16.926Z,48.78
2023-03-08T19:44:48.796Z,46.75
2023-03-08T19:47:20.355Z,53.13
2023-03-08T19:52:18.767Z,54.08
2023-03-08T19:54:47.653Z,47.67
2023-03-08T19:57:16.640Z,47.10
2023-03-08T19:59:45.511Z,44.95
2023-03-08T20:02:15.304Z,42.53
2023-03-08T20:04:45.575Z,38.40
2023-03-08T20:07:14.761Z,46.85
2023-03-08T20:09:44.742Z,48.67
2023-03-08T20:12:14.176Z,57.10
2023-03-08T20:14:43.463Z,62.33
2023-03-08T20:17:12.420Z,55.28
2023-03-08T20:19:41.512Z,44.63
2023-03-08T20:22:11.077Z,57.90
2023-03-08T20:24:39.886Z,61.33
2023-03-08T20:27:09.247Z,63.67
2023-03-08T20:29:38.405Z,63.33
2023-03-08T20:32:07.846Z,81.05
2023-03-08T20:34:37.181Z,70.15
2023-03-08T20:37:09.012Z,59.90
2023-03-08T20:39:38.916Z,77.78
2023-03-08T20:42:11.415Z,60.25
2023-03-08T20:44:41.374Z,64.05
2023-03-08T20:47:10.311Z,56.65
2023-03-08T20:49:39.905Z,66.03
2023-03-08T20:52:11.987Z,65.25
2023-03-08T20:54:43.700Z,61.75
2023-03-08T20:57:12.691Z,79.95
2023-03-08T20:59:41.904Z,63.10
2023-03-08T21:02:13.413Z,67.22
2023-03-08T21:04:42.503Z,74.38
2023-03-08T21:07:11.109Z,63.40
2023-03-08T21:09:39.450Z,73.00
2023-03-08T21:12:09.035Z,78.80
2023-03-08T21:14:37.867Z,75.22
2023-03-08T21:17:06.878Z,72.03
2023-03-08T21:19:35.519Z,78.03
2023-03-08T21:22:05.529Z,70.43
2023-03-08T21:24:34.106Z,72.45
2023-03-08T21:27:02.678Z,58.65
2023-03-08T21:29:31.532Z,75.60
2023-03-08T21:32:01.034Z,69.57
2023-03-08T21:34:30.113Z,87.93
2023-03-08T21:36:59.100Z,76.45
2023-03-08T21:39:27.963Z,91.97
2023-03-08T21:41:58.769Z,77.32
2023-03-08T21:44:28.417Z,77.27
2023-03-08T21:46:58.207Z,81.60
2023-03-08T21:49:30.097Z,73.97
2023-03-08T21:51:59.832Z,88.25
2023-03-08T21:54:31.736Z,74.75
2023-03-08T21:57:00.480Z,64.13
2023-03-08T21:59:29.530Z,67.57
2023-03-08T22:01:59.310Z,71.13
2023-03-08T22:04:29.314Z,67.30
2023-03-08T22:06:58.603Z,64.25
2023-03-08T22:09:29.445Z,65.88
2023-03-08T22:11:58.627Z,62.47
2023-03-08T22:14:28.926Z,67.25
2023-03-08T22:16:57.808Z,68.30
2023-03-08T22:19:26.701Z,73.90
2023-03-08T22:21:55.370Z,64.22
2023-03-08T22:24:24.206Z,75.22
2023-03-08T22:26:52.589Z,65.88
2023-03-08T22:29:21.063Z,85.97
2023-03-08T22:31:49.907Z,78.07
2023-03-08T22:34:18.244Z,73.25
2023-03-08T22:36:46.501Z,60.38
2023-03-08T22:39:15.613Z,68.65
2023-03-08T22:41:44.717Z,65.97
2023-03-08T22:44:15.674Z,63.63
2023-03-08T22:46:46.617Z,62.25
2023-03-08T22:49:17.195Z,65.28
2023-03-08T22:51:47.409Z,54.67
2023-03-08T22:54:19.917Z,64.15
2023-03-08T22:56:50.242Z,54.50
2023-03-08T22:59:19.028Z,60.88
2023-03-08T23:01:47.341Z,58.45
2023-03-08T23:04:16.861Z,63.15
2023-03-08T23:06:45.796Z,54.97
2023-03-08T23:09:15.122Z,69.25
2023-03-08T23:11:45.407Z,63.03
2023-03-08T23:14:14.322Z,72.63
2023-03-08T23:16:46.176Z,63.35
2023-03-08T23:19:19.569Z,67.43
2023-03-08T23:21:48.288Z,70.05
2023-03-08T23:24:17.188Z,73.32
2023-03-08T23:26:46.385Z,89.38
2023-03-08T23:29:16.158Z,84.30
2023-03-08T23:31:46.942Z,73.30
2023-03-08T23:34:15.205Z,81.35
2023-03-08T23:36:43.293Z,85.57
2023-03-08T23:39:11.678Z,98.57
2023-03-08T23:41:43.319Z,79.20
2023-03-08T23:44:12.681Z,81.72
2023-03-08T23:46:40.973Z,68.72
2023-03-08T23:49:10.492Z,70.32
2023-03-08T23:51:38.949Z,59.20
2023-03-08T23:54:07.658Z,66.85
2023-03-08T23:56:38.617Z,61.72
2023-03-08T23:59:23.211Z,62.58
